• Join FlightAware (Why Join?)
  • Login
  • US Flag 
12:58PM EDT


 

Airport Tracker/Info


-or-


 

Live Flight TrackerFlight Track Log ✈ VNR160 ✈ 07-Jun-2013 ✈ KVGT - KMCC

Flight Track Log - Related Links

Times and Time Zones

All times are in EDT time to prevent confusion due to time zone crossing. See the VNR160 flight status page for this flight to view local times or setup timezone preferences in your user account.

Time Position Orientation Groundspeed Altitude Reporting Facility
EDT Latitude Longitude Course Direction KTS MPH feet Rate Location/Type
09:46PM 36.1900 -115.1758 172° South 137 158 3,200  Level Los Angeles Center
09:46PM 36.1822 -115.1744 172° South 141 162 3,500 1,440 Climbing Los Angeles Center
09:47PM 36.1642 -115.2189 243° Southwest 189 217 5,100 1,680 Climbing Los Angeles Center
09:48PM 36.1989 -115.2661 312° West 189 217 7,000 1,920 Climbing Los Angeles Center
09:49PM 36.2236 -115.3283 296° West 196 226 9,100 2,100 Climbing Los Angeles Center
09:50PM 36.2503 -115.3917 298° West 204 235 11,400 2,100 Climbing Los Angeles Center
09:51PM 36.2814 -115.4675 297° West 205 236 13,500 1,800 Climbing Los Angeles Center
09:52PM 36.3111 -115.5394 297° West 225 259 15,200 1,620 Climbing Los Angeles Center
09:53PM 36.3419 -115.6139 297° West 259 298 16,900 1,920 Climbing Los Angeles Center
09:54PM 36.3789 -115.7031 297° West 246 283 19,200 1,800 Climbing Los Angeles Center
09:55PM 36.4119 -115.7828 297° West 255 293 20,600 1,320 Climbing Los Angeles Center
09:56PM 36.4472 -115.8694 297° West 277 319 22,000 1,440 Climbing Los Angeles Center
09:58PM 36.4850 -115.9672 296° West 290 334 23,600 1,560 Climbing Los Angeles Center
09:59PM 36.5244 -116.0575 299° West 291 335 25,300 1,140 Climbing Los Angeles Center
10:00PM 36.5603 -116.1489 296° West 293 337 26,000 300 Climbing Los Angeles Center
10:01PM 36.6036 -116.2514 298° West 332 382 26,000  Level Los Angeles Center
10:02PM 36.6481 -116.3628 296° West 353 406 26,000  Level Los Angeles Center
10:03PM 36.7058 -116.4997 298° West 371 427 26,000  Level Los Angeles Center
10:04PM 36.7550 -116.6139 298° West 373 429 26,000  Level Los Angeles Center
10:05PM 36.8044 -116.7303 298° West 379 436 26,000  Level Los Angeles Center
10:06PM 36.8647 -116.8683 299° West 377 434 26,000  Level Los Angeles Center
10:07PM 36.9147 -116.9858 298° West 382 440 26,000  Level Los Angeles Center
10:08PM 36.9653 -117.1036 298° West 383 441 26,000  Level Los Angeles Center
10:09PM 37.0156 -117.2236 298° West 387 445 26,000  Level Los Angeles Center
10:10PM 37.0542 -117.3189 297° West 386 444 26,000  Level Oakland Center
10:11PM 37.1044 -117.4369 298° West 385 443 26,000  Level Oakland Center
10:12PM 37.1542 -117.5567 298° West 386 444 26,000  Level Oakland Center
10:13PM 37.2044 -117.6761 298° West 386 444 26,000  Level Oakland Center
10:14PM 37.2533 -117.7961 297° West 386 444 26,000  Level Oakland Center
10:15PM 37.3042 -117.9172 298° West 389 448 26,000  Level Oakland Center
10:16PM 37.3544 -118.0400 297° West 393 452 26,000  Level Oakland Center
10:17PM 37.4042 -118.1611 297° West 390 449 26,000  Level Oakland Center
10:18PM 37.4647 -118.3069 298° West 390 449 26,000  Level Oakland Center
10:19PM 37.5142 -118.4286 297° West 390 449 26,000  Level Oakland Center
10:20PM 37.5642 -118.5514 297° West 391 450 26,000  Level Oakland Center
10:21PM 37.6136 -118.6742 297° West 392 451 26,000  Level Oakland Center
10:22PM 37.6622 -118.7953 297° West 390 449 26,000  Level Oakland Center
10:23PM 37.7064 -118.9072 297° West 386 444 26,000 -540 Level Oakland Center
10:24PM 37.7558 -119.0297 297° West 390 449 25,000 -1,020 Descending Oakland Center
10:25PM 37.8064 -119.1550 297° West 399 459 24,000 -720 Descending Oakland Center
10:26PM 37.8653 -119.3025 297° West 393 452 23,600 -720 Descending Oakland Center
10:27PM 37.9117 -119.4208 296° West 381 438 22,600 -840 Descending Oakland Center
10:28PM 37.9600 -119.5392 297° West 377 434 22,000 -300 Descending Oakland Center
10:29PM 38.0072 -119.6572 297° West 377 434 22,000  Level Oakland Center
10:30PM 38.0517 -119.7736 296° West 369 425 22,000  Level Oakland Center
10:31PM 38.0967 -119.8903 296° West 368 423 22,000  Level Oakland Center
10:32PM 38.1406 -120.0053 296° West 363 418 22,000 -480 Level Oakland Center
10:33PM 38.1844 -120.1203 296° West 361 415 21,100 -1,380 Descending Oakland Center
10:34PM 38.2286 -120.2333 296° West 358 412 19,200 -1,920 Descending Oakland Center
10:35PM 38.2697 -120.3417 296° West 344 396 17,300 -1,680 Descending Oakland Center
10:36PM 38.3117 -120.4483 297° West 340 391 15,800 -1,560 Descending Oakland Center
10:37PM 38.3508 -120.5536 295° West 331 381 14,200 -1,680 Descending Oakland Center
10:38PM 38.3983 -120.6794 296° West 330 380 12,400 -1,500 Descending Oakland Center
10:39PM 38.4350 -120.7767 296° West 310 357 11,200 -1,200 Descending Oakland Center
10:40PM 38.4692 -120.8692 295° West 291 335 10,000 -1,260 Descending Oakland Center
10:41PM 38.5017 -120.9631 294° West 291 335 8,700 -1,740 Descending Oakland Center
10:42PM 38.5300 -121.0556 291° West 284 327 6,500 -2,100 Descending Oakland Center
10:43PM 38.5442 -121.1575 280° West 267 307 4,500 -1,680 Descending Oakland Center
10:44PM 38.5458 -121.2442 271° West 249 287 3,200 -840 Descending Oakland Center
10:45PM 38.5594 -121.3225 283° West 229 264 2,800 -900 Descending Oakland Center
10:47PM 38.5833 -121.3833 297° West 202 232 1,400 -1,080 Descending Northern Cal TRACON
10:48PM 38.6167 -121.4000 339° North 134 154 600 -840 Descending Northern Cal TRACON